Marske-by-the-Sea, United Kingdom
Current Conditions -  °F | °C
As of 9:50 PM on Wednesday 17 Dec 2014 (Local Time) from EGNV Reporting Station
Scattered Clouds Scattered Clouds  
Wind Chill: 52°   Ceiling: Unl
Heat Index: 52°   Visibility: 6mi
Dew Point: 48°   Wind: 12mph
Humidity: 88%   Direction: 200°SSW
Pressure: 29.59"   Gusts: NA
Location:  54.59°N, 1.02°W
Report Text: EGNV 172150Z 20010KT 9999 SCT013 11/09 Q1002
Loading
Personal Weather Stations






























Interactive Weather Map New forecast layout! Learn more

10-Day Weather Forecast

Advertisements
Track Severe Weather on mobile